Time;durP1;ratioP1;P1;durP2;ratioP2;P2;SDS_P1;SDS_P2;PMS_P1;PMS_P2;Temp;Humidity;BMP_temperature;BMP_pressure;BME280_temperature;BME280_humidity;BME280_pressure;Samples;Min_cycle;Max_cycle;Signal;HPM_P1;HPM_P2
2022/08/10 00:01:03;;;;;;;0.90;0.90;;;24.90;64.80;;;;;;5087895;27;43995;-73
2022/08/10 00:03:31;;;;;;;1.00;1.00;;;24.90;64.70;;;;;;5088680;27;44003;-73
2022/08/10 00:05:59;;;;;;;1.10;1.07;;;24.90;64.50;;;;;;5070434;28;44907;-73
2022/08/10 00:08:27;;;;;;;0.90;0.90;;;25.00;64.20;;;;;;5088877;27;43983;-74
2022/08/10 00:10:56;;;;;;;1.00;1.00;;;25.10;63.90;;;;;;5071259;28;44227;-72
2022/08/10 00:13:26;;;;;;;0.97;0.97;;;25.20;63.60;;;;;;5088672;27;44034;-74
2022/08/10 00:15:54;;;;;;;0.97;0.97;;;25.20;63.30;;;;;;5088388;27;43784;-74
2022/08/10 00:18:24;;;;;;;1.00;1.00;;;25.20;64.00;;;;;;5108202;27;43471;-74
2022/08/10 00:21:02;;;;;;;1.00;1.00;;;25.10;63.70;;;;;;5083635;27;43920;-74
2022/08/10 00:23:30;;;;;;;1.23;1.00;;;25.10;63.80;;;;;;5088489;27;43957;-73
2022/08/10 00:25:58;;;;;;;0.90;0.90;;;25.10;63.80;;;;;;5070045;27;44938;-73
2022/08/10 00:28:26;;;;;;;0.87;0.87;;;25.00;63.90;;;;;;5088695;27;43931;-73
2022/08/10 00:30:54;;;;;;;0.80;0.80;;;25.00;64.40;;;;;;5088666;27;43830;-73
2022/08/10 00:33:22;;;;;;;0.90;0.90;;;25.00;64.40;;;;;;5069855;27;46089;-72
2022/08/10 00:35:51;;;;;;;1.03;1.03;;;25.00;64.20;;;;;;5088299;27;44050;-72
2022/08/10 00:38:19;;;;;;;0.90;0.90;;;25.10;64.00;;;;;;5089449;27;43296;-74
2022/08/10 00:40:47;;;;;;;0.97;0.97;;;25.20;63.50;;;;;;5107893;27;44040;-73
2022/08/10 00:43:15;;;;;;;0.90;0.90;;;25.20;63.30;;;;;;5107949;27;44721;-73
2022/08/10 00:45:51;;;;;;;1.00;1.00;;;25.20;63.10;;;;;;5091981;27;43696;-73
2022/08/10 00:48:28;;;;;;;0.90;0.90;;;25.20;63.30;;;;;;5069948;28;43834;-74
2022/08/10 00:50:59;;;;;;;1.00;1.00;;;25.10;63.80;;;;;;5070117;28;43997;-73
2022/08/10 00:53:27;;;;;;;1.00;1.00;;;25.10;63.80;;;;;;5088093;27;44905;-72
2022/08/10 00:55:55;;;;;;;0.87;0.87;;;25.00;63.80;;;;;;5087908;27;43869;-73
2022/08/10 00:58:43;;;;;;;0.90;0.90;;;25.00;64.00;;;;;;5088109;27;43411;-73
2022/08/10 01:01:11;;;;;;;0.90;0.90;;;25.00;64.40;;;;;;5083700;27;43970;-74
2022/08/10 01:04:00;;;;;;;1.00;1.00;;;25.00;64.40;;;;;;5086788;27;43926;-74
2022/08/10 01:06:53;;;;;;;0.90;0.90;;;25.00;64.00;;;;;;5071505;28;44942;-73
2022/08/10 01:09:25;;;;;;;0.90;0.90;;;25.10;63.70;;;;;;5097569;27;43995;-73
2022/08/10 01:11:58;;;;;;;1.00;1.00;;;25.20;63.30;;;;;;5085410;27;43892;-74
2022/08/10 01:14:48;;;;;;;0.97;0.97;;;25.20;63.00;;;;;;5091480;27;46077;-74
2022/08/10 01:17:19;;;;;;;0.90;0.90;;;25.10;63.30;;;;;;5106147;27;43409;-73
2022/08/10 01:19:59;;;;;;;0.90;0.90;;;25.10;63.90;;;;;;5090630;27;43854;-73
2022/08/10 01:22:41;;;;;;;0.90;0.90;;;25.00;63.80;;;;;;5090884;27;43511;-75
2022/08/10 01:25:35;;;;;;;0.90;0.90;;;25.00;63.90;;;;;;5067140;27;45555;-74
2022/08/10 01:28:30;;;;;;;1.00;1.00;;;25.00;64.80;;;;;;5091731;27;43376;-74
2022/08/10 01:31:01;;;;;;;1.00;1.00;;;24.90;64.50;;;;;;5076673;27;43846;-75
2022/08/10 01:33:30;;;;;;;1.00;1.00;;;24.90;64.30;;;;;;5072045;27;43893;-73
2022/08/10 01:36:19;;;;;;;1.00;1.00;;;25.00;64.20;;;;;;5071537;28;45416;-73
2022/08/10 01:39:00;;;;;;;1.10;1.10;;;25.10;63.70;;;;;;5090431;27;43404;-74
2022/08/10 01:41:33;;;;;;;1.00;1.00;;;25.20;63.30;;;;;;5065679;27;43429;-74
2022/08/10 01:44:15;;;;;;;0.90;0.90;;;25.20;63.30;;;;;;5090970;27;43817;-74
2022/08/10 01:46:51;;;;;;;1.00;1.00;;;25.20;63.10;;;;;;5090798;27;43980;-74
2022/08/10 01:49:23;;;;;;;1.00;1.00;;;25.10;63.70;;;;;;5101732;27;43989;-74
2022/08/10 01:51:52;;;;;;;0.90;0.90;;;25.10;64.60;;;;;;5110030;27;43986;-74
2022/08/10 01:54:21;;;;;;;0.80;0.80;;;25.00;63.80;;;;;;5092616;27;43932;-74
2022/08/10 01:56:50;;;;;;;0.90;0.90;;;25.00;64.00;;;;;;5093994;27;44920;-74
2022/08/10 01:59:20;;;;;;;1.00;1.00;;;25.00;64.40;;;;;;5104811;27;43925;-73
2022/08/10 02:01:51;;;;;;;0.90;0.90;;;24.90;64.30;;;;;;5071427;28;43984;-74
2022/08/10 02:04:19;;;;;;;1.00;1.00;;;25.00;64.20;;;;;;5090245;27;44054;-74
2022/08/10 02:06:50;;;;;;;0.90;0.90;;;25.10;63.90;;;;;;5089329;27;43816;-74
2022/08/10 02:09:21;;;;;;;0.90;0.90;;;25.10;64.10;;;;;;5102551;27;43924;-74
2022/08/10 02:11:49;;;;;;;0.87;0.87;;;25.20;63.10;;;;;;5108917;27;43500;-73
2022/08/10 02:14:35;;;;;;;1.00;1.00;;;25.10;63.10;;;;;;5085919;27;43978;-74
2022/08/10 02:17:06;;;;;;;1.10;1.10;;;25.10;63.70;;;;;;5071284;27;46125;-73
2022/08/10 02:19:35;;;;;;;1.00;1.00;;;25.00;63.90;;;;;;5091752;27;43904;-73
2022/08/10 02:22:03;;;;;;;1.00;1.00;;;25.00;63.90;;;;;;5088434;27;43995;-74
2022/08/10 02:24:51;;;;;;;0.90;0.90;;;25.00;64.00;;;;;;5092632;27;43494;-74
2022/08/10 02:27:19;;;;;;;1.10;1.10;;;24.90;64.20;;;;;;5092914;27;43994;-74
2022/08/10 02:29:47;;;;;;;1.00;1.00;;;24.90;64.50;;;;;;5074280;28;44833;-74
2022/08/10 02:32:17;;;;;;;0.90;0.90;;;24.90;64.30;;;;;;5092644;27;43929;-74
2022/08/10 02:35:07;;;;;;;0.90;0.90;;;25.00;64.10;;;;;;5094120;27;43880;-75
2022/08/10 02:37:50;;;;;;;0.90;0.90;;;25.10;63.50;;;;;;5097013;27;44056;-74
2022/08/10 02:40:18;;;;;;;1.07;1.07;;;25.20;63.30;;;;;;5102127;27;44098;-73
2022/08/10 02:43:09;;;;;;;0.80;0.80;;;25.20;63.10;;;;;;5093064;27;44039;-74
2022/08/10 02:46:01;;;;;;;0.90;0.90;;;25.10;63.30;;;;;;5090728;27;44033;-73
2022/08/10 02:48:33;;;;;;;1.07;1.07;;;25.00;63.80;;;;;;5100521;27;45126;-75
2022/08/10 02:51:03;;;;;;;0.90;0.90;;;25.00;63.80;;;;;;5104070;27;43962;-74
2022/08/10 02:53:33;;;;;;;1.10;1.10;;;25.00;63.80;;;;;;5094060;27;43359;-74
2022/08/10 02:56:23;;;;;;;1.10;1.10;;;25.00;64.00;;;;;;5094678;27;44089;-74
2022/08/10 02:58:56;;;;;;;0.90;0.90;;;24.90;64.40;;;;;;5112064;27;44071;-74
2022/08/10 03:01:27;;;;;;;0.90;0.90;;;24.90;64.20;;;;;;5092256;27;44027;-74
2022/08/10 03:03:59;;;;;;;1.00;1.00;;;25.00;64.10;;;;;;5092674;27;43907;-72
2022/08/10 03:06:30;;;;;;;1.00;1.00;;;25.10;63.70;;;;;;5074234;27;43932;-74
2022/08/10 03:08:58;;;;;;;0.90;0.90;;;25.20;63.30;;;;;;5092630;27;43920;-73
2022/08/10 03:11:28;;;;;;;1.10;1.10;;;25.20;63.00;;;;;;5095168;27;44140;-74
2022/08/10 03:14:16;;;;;;;1.07;1.07;;;25.20;63.00;;;;;;5111548;27;43968;-74
2022/08/10 03:16:44;;;;;;;0.93;0.93;;;25.10;63.40;;;;;;5092907;27;43325;-73
2022/08/10 03:19:13;;;;;;;1.20;1.20;;;25.10;63.70;;;;;;5091289;27;43900;-72
2022/08/10 03:22:01;;;;;;;1.10;1.10;;;25.00;63.60;;;;;;5090802;27;44034;-72
2022/08/10 03:24:29;;;;;;;1.00;1.00;;;25.00;63.80;;;;;;5091383;27;43977;-75
2022/08/10 03:27:00;;;;;;;0.87;0.87;;;25.00;64.20;;;;;;5091713;27;43864;-74
2022/08/10 03:29:28;;;;;;;1.00;1.00;;;24.90;64.20;;;;;;5072985;27;46352;-74
2022/08/10 03:32:16;;;;;;;0.90;0.90;;;24.90;64.10;;;;;;5091149;27;43940;-74
2022/08/10 03:34:45;;;;;;;0.90;0.90;;;24.90;64.30;;;;;;5090921;27;43966;-75
2022/08/10 03:37:13;;;;;;;1.00;1.00;;;24.80;64.60;;;;;;5091459;27;43893;-73
2022/08/10 03:39:41;;;;;;;1.07;1.07;;;24.80;64.60;;;;;;5090666;27;44032;-74
2022/08/10 03:42:11;;;;;;;1.00;1.00;;;24.90;64.40;;;;;;5095437;27;43939;-73
2022/08/10 03:44:39;;;;;;;1.20;1.20;;;25.00;64.10;;;;;;5086028;28;43889;-74
2022/08/10 03:47:07;;;;;;;1.00;1.00;;;25.10;63.70;;;;;;5091054;27;43965;-74
2022/08/10 03:49:44;;;;;;;1.00;1.00;;;25.20;63.10;;;;;;5090845;27;44285;-74
2022/08/10 03:52:12;;;;;;;1.10;1.10;;;25.30;63.00;;;;;;5084371;27;44007;-74
2022/08/10 03:54:40;;;;;;;1.10;1.10;;;25.20;63.00;;;;;;5091129;27;43941;-73
2022/08/10 03:57:08;;;;;;;0.93;0.93;;;25.20;63.40;;;;;;5082587;27;44027;-73
2022/08/10 03:59:36;;;;;;;1.00;1.00;;;25.10;63.60;;;;;;5090369;27;43932;-74
2022/08/10 04:02:05;;;;;;;1.10;1.10;;;25.10;63.70;;;;;;5071983;27;46038;-74
2022/08/10 04:04:55;;;;;;;1.20;1.20;;;25.00;63.50;;;;;;5092698;27;43427;-74
2022/08/10 04:07:23;;;;;;;1.00;1.00;;;25.00;64.20;;;;;;5131108;27;43433;-74
2022/08/10 04:09:52;;;;;;;1.20;1.20;;;25.00;64.30;;;;;;5130238;27;43970;-74
2022/08/10 04:12:23;;;;;;;1.00;1.00;;;25.00;64.10;;;;;;5111441;27;46249;-74
2022/08/10 04:14:51;;;;;;;1.17;1.17;;;24.90;63.90;;;;;;5104159;27;43919;-74
2022/08/10 04:17:21;;;;;;;0.90;0.90;;;24.90;64.40;;;;;;5130810;27;43920;-74
2022/08/10 04:20:16;;;;;;;1.00;1.00;;;24.90;64.60;;;;;;5130565;27;43833;-73
2022/08/10 04:22:45;;;;;;;0.90;0.90;;;24.90;64.30;;;;;;5110839;27;44730;-74
2022/08/10 04:25:13;;;;;;;1.20;1.20;;;25.00;63.90;;;;;;5110927;27;44074;-73
2022/08/10 04:27:41;;;;;;;1.00;1.00;;;25.10;63.50;;;;;;5111372;27;43403;-74
2022/08/10 04:30:10;;;;;;;1.10;1.10;;;25.20;63.00;;;;;;5111093;27;43916;-74
2022/08/10 04:32:40;;;;;;;1.20;1.20;;;25.30;62.90;;;;;;5117067;27;43949;-74
2022/08/10 04:35:09;;;;;;;1.13;1.13;;;25.20;62.90;;;;;;5110843;27;43954;-74
2022/08/10 04:37:40;;;;;;;1.10;1.10;;;25.20;63.20;;;;;;5111349;27;43888;-73
2022/08/10 04:40:15;;;;;;;1.20;1.20;;;25.10;63.40;;;;;;5110682;27;43983;-74
2022/08/10 04:43:01;;;;;;;1.10;1.10;;;25.10;63.60;;;;;;5129232;27;43343;-73
2022/08/10 04:45:37;;;;;;;0.90;0.90;;;25.00;63.50;;;;;;5116461;27;44041;-74
2022/08/10 04:48:21;;;;;;;1.10;1.10;;;25.00;63.60;;;;;;5107823;27;43313;-73
2022/08/10 04:51:10;;;;;;;1.10;1.10;;;25.00;64.20;;;;;;5111162;27;45668;-74
2022/08/10 04:53:47;;;;;;;1.10;1.10;;;24.90;64.00;;;;;;5129753;27;43993;-74
2022/08/10 04:56:37;;;;;;;1.00;1.00;;;24.90;63.80;;;;;;5130325;27;44061;-74
2022/08/10 04:59:05;;;;;;;1.10;1.10;;;24.90;64.20;;;;;;5130834;27;43409;-73
2022/08/10 05:01:35;;;;;;;1.00;1.00;;;24.90;64.50;;;;;;5095241;27;46176;-73
2022/08/10 05:04:23;;;;;;;0.90;0.90;;;24.90;64.20;;;;;;5115915;27;43494;-74
2022/08/10 05:07:07;;;;;;;1.10;1.10;;;25.00;64.00;;;;;;5129789;27;43933;-73
2022/08/10 05:09:36;;;;;;;1.10;1.10;;;25.10;63.50;;;;;;5130768;27;43891;-73
2022/08/10 05:12:24;;;;;;;1.07;1.07;;;25.20;63.00;;;;;;5130007;27;43970;-75
2022/08/10 05:14:52;;;;;;;1.00;1.00;;;25.20;63.00;;;;;;5112345;27;44001;-74
2022/08/10 05:17:21;;;;;;;1.20;1.20;;;25.20;62.90;;;;;;5113573;27;43983;-73
2022/08/10 05:19:49;;;;;;;1.20;1.20;;;25.10;63.30;;;;;;5130381;27;44010;-74
2022/08/10 05:22:34;;;;;;;1.10;1.10;;;25.10;63.50;;;;;;5097700;27;46092;-73
2022/08/10 05:25:04;;;;;;;1.20;1.20;;;25.00;63.40;;;;;;5110405;27;44869;-73
2022/08/10 05:27:32;;;;;;;1.13;1.13;;;25.00;63.50;;;;;;5102669;27;43976;-74
2022/08/10 05:30:00;;;;;;;1.00;1.00;;;25.00;64.00;;;;;;5098504;27;43931;-73
2022/08/10 05:32:30;;;;;;;1.27;1.27;;;24.90;64.10;;;;;;5070742;27;44288;-74
2022/08/10 05:34:59;;;;;;;1.20;1.20;;;24.90;63.90;;;;;;5129351;27;43935;-73
2022/08/10 05:37:27;;;;;;;1.10;1.10;;;24.90;63.70;;;;;;5129516;27;44045;-74
2022/08/10 05:40:17;;;;;;;1.10;1.10;;;24.80;64.10;;;;;;5129993;27;43362;-74
2022/08/10 05:42:45;;;;;;;1.10;1.10;;;24.80;64.30;;;;;;5125584;27;43619;-74
2022/08/10 05:45:17;;;;;;;1.10;1.10;;;24.90;64.80;;;;;;5109300;27;43996;-74
2022/08/10 05:47:46;;;;;;;1.10;1.10;;;25.00;63.70;;;;;;5109317;27;44226;-73
2022/08/10 05:50:34;;;;;;;1.10;1.10;;;25.10;63.10;;;;;;5123526;27;43990;-73
2022/08/10 05:53:02;;;;;;;1.20;1.20;;;25.20;62.60;;;;;;5102666;27;44245;-73
2022/08/10 05:55:51;;;;;;;1.17;1.17;;;25.20;62.50;;;;;;5105881;27;44000;-73
2022/08/10 05:58:19;;;;;;;1.20;1.20;;;25.20;62.60;;;;;;5111736;27;43413;-73
2022/08/10 06:00:52;;;;;;;1.10;1.10;;;25.10;62.90;;;;;;5113387;27;43880;-74
2022/08/10 06:03:25;;;;;;;1.10;1.10;;;25.10;63.10;;;;;;5111737;27;47129;-73
2022/08/10 06:05:53;;;;;;;1.10;1.10;;;25.00;63.20;;;;;;5132762;27;43890;-74
2022/08/10 06:08:22;;;;;;;1.20;1.20;;;25.00;63.20;;;;;;5132539;27;43848;-74
2022/08/10 06:10:55;;;;;;;1.33;1.33;;;24.90;63.60;;;;;;5133372;27;43935;-74
2022/08/10 06:16:41;;;;;;;1.10;1.10;;;24.90;63.60;;;;;;5086229;27;44021;-74
2022/08/10 06:19:10;;;;;;;1.10;1.10;;;24.80;63.30;;;;;;5124718;27;44024;-74
2022/08/10 06:21:41;;;;;;;1.10;1.10;;;24.80;64.00;;;;;;5101123;27;43527;-74
2022/08/10 06:24:28;;;;;;;1.10;1.10;;;24.80;64.00;;;;;;5132476;27;43816;-75
2022/08/10 06:26:59;;;;;;;1.10;1.10;;;24.80;63.70;;;;;;5124082;27;43997;-74
2022/08/10 06:29:28;;;;;;;1.20;1.20;;;25.00;63.30;;;;;;5114970;27;44018;-74
2022/08/10 06:31:56;;;;;;;1.10;1.10;;;25.10;62.80;;;;;;5117220;27;43821;-73
2022/08/10 06:34:25;;;;;;;1.30;1.30;;;25.20;62.40;;;;;;5119288;27;43897;-74
2022/08/10 06:36:54;;;;;;;1.00;1.00;;;25.20;62.20;;;;;;5119440;27;44006;-74
2022/08/10 06:39:22;;;;;;;1.20;1.20;;;25.10;62.30;;;;;;5112772;27;43887;-73
2022/08/10 06:42:08;;;;;;;1.10;1.10;;;25.10;62.60;;;;;;5123206;27;43940;-74
2022/08/10 06:44:47;;;;;;;1.20;1.20;;;25.00;62.80;;;;;;5132275;27;45074;-74
2022/08/10 06:47:15;;;;;;;1.27;1.27;;;25.00;62.90;;;;;;5105068;27;43879;-75
2022/08/10 06:49:51;;;;;;;1.33;1.33;;;25.00;63.00;;;;;;5094036;27;44187;-74
2022/08/10 06:52:22;;;;;;;1.30;1.30;;;24.90;63.30;;;;;;5112993;27;44025;-74
2022/08/10 06:54:50;;;;;;;1.20;1.20;;;24.80;63.50;;;;;;5113408;27;43994;-73
2022/08/10 06:57:19;;;;;;;1.10;1.10;;;24.80;63.40;;;;;;5111940;27;44721;-74
2022/08/10 06:59:47;;;;;;;1.30;1.30;;;24.80;62.50;;;;;;5111999;27;43963;-74
2022/08/10 07:02:28;;;;;;;1.30;1.30;;;24.80;63.90;;;;;;5112720;27;43792;-74
2022/08/10 07:05:01;;;;;;;1.17;1.17;;;24.80;63.00;;;;;;5093328;27;45426;-74
2022/08/10 07:07:30;;;;;;;1.23;1.23;;;24.80;63.60;;;;;;5116058;27;43755;-74
2022/08/10 07:10:00;;;;;;;1.60;1.30;;;24.90;62.20;;;;;;5126669;27;43909;-73
2022/08/10 07:12:30;;;;;;;1.20;1.20;;;25.00;62.40;;;;;;5130012;27;43843;-74
2022/08/10 07:14:58;;;;;;;1.23;1.23;;;25.10;61.70;;;;;;5132013;27;43903;-73
2022/08/10 07:17:26;;;;;;;1.40;1.40;;;25.10;61.00;;;;;;5112908;27;43928;-73
2022/08/10 07:19:55;;;;;;;1.30;1.30;;;25.10;60.80;;;;;;5101642;27;43980;-73
2022/08/10 07:22:25;;;;;;;1.20;1.20;;;25.10;62.00;;;;;;5093231;27;44031;-74
2022/08/10 07:25:14;;;;;;;1.27;1.27;;;25.00;62.50;;;;;;5111579;27;44074;-74
2022/08/10 07:27:44;;;;;;;1.30;1.30;;;25.00;62.50;;;;;;5119277;27;44135;-73
2022/08/10 07:30:28;;;;;;;1.37;1.37;;;24.90;60.90;;;;;;5131458;27;44006;-74
2022/08/10 07:32:56;;;;;;;1.47;1.47;;;24.80;63.00;;;;;;5121706;27;43924;-73
2022/08/10 07:35:25;;;;;;;1.30;1.30;;;24.80;62.30;;;;;;5111221;27;45145;-74
2022/08/10 07:37:53;;;;;;;1.30;1.30;;;24.90;62.60;;;;;;5114920;27;43936;-73
2022/08/10 07:40:21;;;;;;;1.23;1.23;;;25.00;62.20;;;;;;5131222;27;43364;-74
2022/08/10 07:42:52;;;;;;;2.00;1.30;;;25.10;61.50;;;;;;5121137;27;43924;-73
2022/08/10 07:45:20;;;;;;;1.20;1.20;;;25.10;61.10;;;;;;5111408;27;44099;-74
2022/08/10 07:47:59;;;;;;;1.43;1.43;;;25.10;60.40;;;;;;5111016;27;43945;-74
2022/08/10 07:50:35;;;;;;;1.47;1.40;;;25.00;60.50;;;;;;5105964;27;44029;-73
2022/08/10 07:53:03;;;;;;;1.30;1.30;;;25.00;62.20;;;;;;5100557;27;44026;-74
2022/08/10 07:55:31;;;;;;;1.37;1.37;;;24.90;61.20;;;;;;5118357;27;43889;-73
2022/08/10 07:58:22;;;;;;;1.57;1.57;;;24.90;60.90;;;;;;5130951;27;43941;-74
2022/08/10 08:00:50;;;;;;;1.47;1.40;;;24.80;60.80;;;;;;5117716;27;44002;-72
2022/08/10 08:03:19;;;;;;;1.40;1.40;;;24.80;62.40;;;;;;5131740;27;44016;-73
2022/08/10 08:05:47;;;;;;;1.50;1.40;;;24.80;62.90;;;;;;5130374;27;43728;-74
2022/08/10 08:08:30;;;;;;;1.50;1.40;;;24.80;62.50;;;;;;5130337;27;43923;-73
2022/08/10 08:10:58;;;;;;;1.77;1.70;;;24.70;62.50;;;;;;5124207;27;44002;-74
2022/08/10 08:13:27;;;;;;;1.57;1.47;;;24.70;63.00;;;;;;5131253;27;44033;-74
2022/08/10 08:15:56;;;;;;;1.40;1.40;;;24.70;62.90;;;;;;5111920;27;46508;-73
2022/08/10 08:18:44;;;;;;;1.50;1.50;;;24.80;62.40;;;;;;5123609;27;43926;-74
2022/08/10 08:21:33;;;;;;;1.50;1.50;;;24.90;62.20;;;;;;5129207;27;43906;-73
2022/08/10 08:24:21;;;;;;;1.40;1.40;;;25.00;61.10;;;;;;5130769;27;43965;-74
2022/08/10 08:27:00;;;;;;;1.40;1.40;;;25.10;61.10;;;;;;5122165;27;43856;-73
2022/08/10 08:29:30;;;;;;;1.30;1.30;;;25.10;61.00;;;;;;5101292;27;45006;-73
2022/08/10 08:31:58;;;;;;;1.20;1.20;;;25.10;60.60;;;;;;5130609;27;44030;-74
2022/08/10 08:34:29;;;;;;;1.60;1.60;;;25.00;61.90;;;;;;5131403;27;43886;-74
2022/08/10 08:36:58;;;;;;;1.47;1.40;;;24.90;61.20;;;;;;5114277;27;43916;-74
2022/08/10 08:39:26;;;;;;;1.50;1.50;;;24.90;61.50;;;;;;5110716;27;43829;-74
2022/08/10 08:42:18;;;;;;;1.40;1.40;;;24.80;62.20;;;;;;5087323;27;43963;-74
2022/08/10 08:44:57;;;;;;;1.30;1.30;;;24.80;62.40;;;;;;5084318;28;44338;-73
2022/08/10 08:47:39;;;;;;;1.30;1.30;;;24.80;62.70;;;;;;5079880;28;43893;-74
2022/08/10 08:50:35;;;;;;;1.50;1.50;;;24.70;62.70;;;;;;5085962;27;43948;-74
2022/08/10 08:53:10;;;;;;;1.57;1.57;;;24.70;61.30;;;;;;5084664;28;43929;-74
2022/08/10 08:55:54;;;;;;;1.30;1.30;;;24.70;62.60;;;;;;5081306;28;43985;-73
2022/08/10 08:58:42;;;;;;;1.40;1.40;;;24.70;62.90;;;;;;5085414;27;43407;-74
2022/08/10 09:01:18;;;;;;;1.50;1.50;;;24.80;62.30;;;;;;5083690;28;43537;-74
2022/08/10 09:04:05;;;;;;;1.30;1.30;;;24.90;62.30;;;;;;5084792;27;43753;-74
2022/08/10 09:06:55;;;;;;;1.67;1.67;;;25.00;61.50;;;;;;5085108;27;43426;-73
2022/08/10 09:09:37;;;;;;;1.50;1.50;;;25.10;60.80;;;;;;5083384;28;44037;-74
2022/08/10 09:12:20;;;;;;;1.30;1.30;;;25.00;59.90;;;;;;5076298;28;43935;-74
2022/08/10 09:14:52;;;;;;;1.30;1.30;;;25.00;61.60;;;;;;5084857;28;43758;-74
2022/08/10 09:17:27;;;;;;;1.30;1.30;;;24.90;60.60;;;;;;5082928;28;45604;-72
2022/08/10 09:19:58;;;;;;;1.53;1.40;;;24.90;60.50;;;;;;5084532;27;43873;-73
2022/08/10 09:22:40;;;;;;;1.30;1.30;;;24.80;61.30;;;;;;5084733;28;43877;-73
2022/08/10 09:25:17;;;;;;;1.40;1.40;;;24.80;62.30;;;;;;5078413;28;44841;-74
2022/08/10 09:27:48;;;;;;;1.60;1.40;;;24.80;62.40;;;;;;5084707;28;43936;-74
2022/08/10 09:30:22;;;;;;;1.50;1.50;;;24.80;62.00;;;;;;5084701;27;43967;-73
2022/08/10 09:33:04;;;;;;;1.40;1.40;;;24.90;61.40;;;;;;5084970;27;44343;-73
2022/08/10 09:35:55;;;;;;;1.70;1.60;;;25.00;61.20;;;;;;5083981;27;43884;-73
2022/08/10 09:38:47;;;;;;;1.30;1.30;;;25.00;61.60;;;;;;5084053;27;43888;-73
2022/08/10 09:41:26;;;;;;;1.30;1.30;;;25.00;61.60;;;;;;5083641;28;43401;-73
2022/08/10 09:44:00;;;;;;;1.23;1.23;;;25.00;62.00;;;;;;5084702;27;43974;-73
2022/08/10 09:46:47;;;;;;;1.40;1.40;;;24.90;61.80;;;;;;5077949;28;43943;-73
2022/08/10 09:49:17;;;;;;;1.40;1.40;;;24.90;62.50;;;;;;5078451;28;44858;-73
2022/08/10 09:51:57;;;;;;;1.60;1.60;;;24.80;62.70;;;;;;5079055;28;44049;-73
2022/08/10 09:54:30;;;;;;;1.30;1.30;;;24.80;62.30;;;;;;5070794;28;43449;-73
2022/08/10 09:57:03;;;;;;;1.27;1.27;;;24.80;61.70;;;;;;5068855;28;46000;-74
2022/08/10 09:59:56;;;;;;;1.27;1.27;;;24.70;62.60;;;;;;5070409;28;43966;-73
2022/08/10 10:02:35;;;;;;;1.40;1.40;;;24.70;62.80;;;;;;5068757;28;43942;-73
2022/08/10 10:05:12;;;;;;;1.40;1.40;;;24.70;61.30;;;;;;5070863;28;43948;-74
2022/08/10 10:07:58;;;;;;;1.60;1.50;;;24.70;63.00;;;;;;5068750;28;45300;-74
2022/08/10 10:10:29;;;;;;;1.30;1.30;;;24.70;62.80;;;;;;5070303;28;43997;-73
2022/08/10 10:12:59;;;;;;;1.43;1.43;;;24.80;61.50;;;;;;5070502;28;43963;-73
2022/08/10 10:15:33;;;;;;;1.37;1.37;;;24.90;61.80;;;;;;5070131;28;43467;-73
2022/08/10 10:18:22;;;;;;;1.40;1.40;;;25.00;61.70;;;;;;5070359;28;44015;-74
2022/08/10 10:20:55;;;;;;;1.40;1.40;;;25.00;61.60;;;;;;5070752;28;43301;-74
2022/08/10 10:23:29;;;;;;;1.10;1.10;;;25.00;60.30;;;;;;5070739;28;43967;-73
2022/08/10 10:26:01;;;;;;;1.30;1.30;;;25.00;60.40;;;;;;5070755;28;44006;-74
2022/08/10 10:28:42;;;;;;;1.60;1.50;;;24.90;61.40;;;;;;5068318;28;45259;-73
2022/08/10 10:31:33;;;;;;;1.40;1.40;;;24.90;61.80;;;;;;5068230;28;45006;-73
2022/08/10 10:34:12;;;;;;;1.20;1.20;;;24.90;61.20;;;;;;5068663;28;43972;-73
2022/08/10 10:36:41;;;;;;;1.30;1.30;;;24.80;61.20;;;;;;5064066;28;43956;-74
2022/08/10 10:39:12;;;;;;;1.23;1.23;;;24.80;61.30;;;;;;5069811;28;43953;-73
2022/08/10 10:41:43;;;;;;;1.33;1.33;;;24.70;61.00;;;;;;5068702;28;43916;-73
2022/08/10 10:44:36;;;;;;;1.37;1.30;;;24.70;61.80;;;;;;5069860;28;44023;-74
2022/08/10 10:47:41;;;;;;;1.37;1.37;;;24.70;62.80;;;;;;5070293;28;44012;-74
2022/08/10 10:50:12;;;;;;;1.30;1.30;;;24.80;63.00;;;;;;5066834;28;44660;-74
2022/08/10 10:52:46;;;;;;;1.30;1.30;;;24.80;62.80;;;;;;5069275;28;43400;-74
2022/08/10 10:55:18;;;;;;;1.30;1.30;;;24.90;62.30;;;;;;5068089;28;43864;-73
2022/08/10 10:57:58;;;;;;;1.40;1.40;;;25.00;61.90;;;;;;5070248;28;43450;-74
2022/08/10 11:00:30;;;;;;;1.30;1.30;;;25.10;61.70;;;;;;5062391;28;45617;-74
2022/08/10 11:03:08;;;;;;;1.30;1.30;;;25.10;61.70;;;;;;5067809;28;44854;-73
2022/08/10 11:05:42;;;;;;;1.37;1.37;;;25.10;61.70;;;;;;5068394;28;43987;-73
2022/08/10 11:08:11;;;;;;;1.40;1.40;;;25.00;62.10;;;;;;5070371;28;43887;-74
2022/08/10 11:10:45;;;;;;;1.47;1.47;;;25.00;62.20;;;;;;5070162;28;43868;-73
2022/08/10 11:13:29;;;;;;;1.30;1.30;;;25.00;62.20;;;;;;5068469;28;44741;-74
2022/08/10 11:16:20;;;;;;;1.77;1.40;;;24.90;62.30;;;;;;5066008;28;43357;-73
2022/08/10 11:18:56;;;;;;;1.10;1.10;;;24.80;62.70;;;;;;5070348;28;44017;-74
2022/08/10 11:21:31;;;;;;;1.30;1.30;;;24.80;63.40;;;;;;5070314;28;43922;-74
2022/08/10 11:24:03;;;;;;;1.20;1.20;;;24.90;62.50;;;;;;5070369;28;44105;-73
2022/08/10 11:26:54;;;;;;;1.40;1.40;;;25.00;62.20;;;;;;5068451;28;44124;-74
2022/08/10 11:29:25;;;;;;;1.20;1.20;;;25.00;62.00;;;;;;5070545;28;43321;-73
2022/08/10 11:31:57;;;;;;;1.20;1.20;;;25.00;61.90;;;;;;5068105;28;45814;-73
2022/08/10 11:34:34;;;;;;;1.40;1.40;;;25.00;62.10;;;;;;5069412;28;43852;-74
2022/08/10 11:37:27;;;;;;;1.33;1.33;;;25.00;62.50;;;;;;5070158;28;43955;-74
2022/08/10 11:40:18;;;;;;;1.27;1.27;;;24.90;62.50;;;;;;5066669;28;43916;-74
2022/08/10 11:42:50;;;;;;;1.30;1.30;;;24.90;63.20;;;;;;5069479;28;45100;-74
2022/08/10 11:45:20;;;;;;;1.40;1.40;;;24.80;62.40;;;;;;5067846;28;44662;-74
2022/08/10 11:47:50;;;;;;;1.30;1.30;;;24.80;63.10;;;;;;5069725;28;43461;-73
2022/08/10 11:50:21;;;;;;;1.27;1.27;;;24.80;63.00;;;;;;5069975;28;44046;-74
2022/08/10 11:52:57;;;;;;;1.20;1.20;;;24.80;62.90;;;;;;5069262;28;44055;-75
2022/08/10 11:55:28;;;;;;;1.30;1.30;;;24.80;62.70;;;;;;5069148;28;43976;-73
2022/08/10 11:59:55;;;;;;;1.20;1.20;;;24.70;63.80;;;;;;5070164;28;43343;-74
2022/08/10 12:00:50;;;;;;;1.30;1.30;;;24.70;63.50;;;;;;5067079;28;43948;-73
2022/08/10 12:03:18;;;;;;;1.23;1.23;;;24.80;63.30;;;;;;5067640;28;45755;-73
2022/08/10 12:05:46;;;;;;;1.40;1.40;;;24.80;63.00;;;;;;5069399;28;43931;-74
2022/08/10 12:08:25;;;;;;;1.40;1.40;;;24.90;62.80;;;;;;5069877;28;43852;-74
2022/08/10 12:11:15;;;;;;;1.30;1.30;;;25.00;62.20;;;;;;5069089;28;43494;-73
2022/08/10 12:13:53;;;;;;;1.30;1.30;;;25.10;62.10;;;;;;5069614;28;43895;-74
2022/08/10 12:16:43;;;;;;;1.40;1.40;;;25.10;62.10;;;;;;5069742;28;43400;-74
2022/08/10 12:19:14;;;;;;;1.30;1.30;;;25.00;62.40;;;;;;5070542;28;43893;-73
2022/08/10 12:21:45;;;;;;;1.30;1.30;;;25.00;62.50;;;;;;5068388;28;43885;-73
2022/08/10 12:24:22;;;;;;;1.20;1.20;;;24.90;62.40;;;;;;5069699;28;43881;-73
2022/08/10 12:26:54;;;;;;;1.30;1.30;;;24.90;62.30;;;;;;5063389;28;43932;-74
2022/08/10 12:29:26;;;;;;;1.40;1.40;;;24.80;62.80;;;;;;5068703;28;43363;-74
2022/08/10 12:31:57;;;;;;;1.50;1.50;;;24.80;63.00;;;;;;5070865;28;43896;-73
2022/08/10 12:34:28;;;;;;;1.20;1.20;;;24.80;62.80;;;;;;5069350;28;43925;-73
2022/08/10 12:37:04;;;;;;;1.27;1.27;;;24.80;62.50;;;;;;5069405;28;43949;-74
2022/08/10 12:39:39;;;;;;;1.20;1.20;;;24.80;62.70;;;;;;5069197;28;43335;-73
2022/08/10 12:42:11;;;;;;;1.30;1.30;;;24.80;63.60;;;;;;5068520;28;44024;-74
2022/08/10 12:45:03;;;;;;;1.20;1.20;;;24.80;63.40;;;;;;5068996;28;43718;-74
2022/08/10 12:47:38;;;;;;;1.20;1.20;;;24.80;63.10;;;;;;5067911;28;43952;-73
2022/08/10 12:50:10;;;;;;;1.33;1.27;;;25.00;62.90;;;;;;5067305;28;44058;-73
2022/08/10 12:53:01;;;;;;;1.20;1.20;;;25.00;62.20;;;;;;5067699;28;43498;-73
2022/08/10 12:55:37;;;;;;;1.50;1.50;;;25.10;61.90;;;;;;5067191;28;44685;-74
2022/08/10 12:58:05;;;;;;;1.30;1.30;;;25.10;61.70;;;;;;5067210;28;43984;-73
2022/08/10 13:00:53;;;;;;;1.40;1.30;;;25.00;61.90;;;;;;5070379;28;43803;-73
2022/08/10 13:03:41;;;;;;;1.27;1.27;;;25.00;61.90;;;;;;5070174;28;43951;-74
2022/08/10 13:06:29;;;;;;;1.20;1.20;;;24.90;61.60;;;;;;5069311;28;43842;-74
2022/08/10 13:09:09;;;;;;;1.50;1.50;;;24.90;61.50;;;;;;5067581;28;44691;-73
2022/08/10 13:11:41;;;;;;;1.23;1.20;;;24.80;62.50;;;;;;5070306;28;44039;-74
2022/08/10 13:14:32;;;;;;;1.30;1.30;;;24.80;62.50;;;;;;5070406;28;43939;-74
2022/08/10 13:17:00;;;;;;;1.30;1.30;;;24.80;61.00;;;;;;5069644;28;43984;-74
2022/08/10 13:19:29;;;;;;;1.40;1.40;;;24.80;61.40;;;;;;5069462;28;43983;-74
2022/08/10 13:22:17;;;;;;;1.30;1.30;;;24.70;62.90;;;;;;5070116;28;44033;-73
2022/08/10 13:24:48;;;;;;;1.40;1.30;;;24.80;62.70;;;;;;5069998;28;43332;-73
2022/08/10 13:27:28;;;;;;;1.33;1.30;;;24.80;62.80;;;;;;5069415;28;46134;-74
2022/08/10 13:30:15;;;;;;;1.10;1.10;;;24.90;62.50;;;;;;5073559;28;43963;-74
2022/08/10 13:33:00;;;;;;;1.20;1.20;;;25.00;62.90;;;;;;5074090;28;43933;-74